sensor_id;sensor_type;location;lat;lon;timestamp;temperature;humidity
15819;DHT22;8010;53.986;12.106;2023-12-28T00:00:24;5.50;99.90
15819;DHT22;8010;53.986;12.106;2023-12-28T00:02:50;5.50;99.90
15819;DHT22;8010;53.986;12.106;2023-12-28T00:05:15;5.60;99.90
15819;DHT22;8010;53.986;12.106;2023-12-28T00:07:41;5.60;99.90
15819;DHT22;8010;53.986;12.106;2023-12-28T00:10:07;5.60;99.90
15819;DHT22;8010;53.986;12.106;2023-12-28T00:12:32;5.60;99.90
15819;DHT22;8010;53.986;12.106;2023-12-28T00:14:58;5.60;99.90
15819;DHT22;8010;53.986;12.106;2023-12-28T00:17:23;5.60;99.90
15819;DHT22;8010;53.986;12.106;2023-12-28T00:19:49;5.60;99.90
15819;DHT22;8010;53.986;12.106;2023-12-28T00:22:14;5.60;99.90
15819;DHT22;8010;53.986;12.106;2023-12-28T00:24:40;5.70;99.90
15819;DHT22;8010;53.986;12.106;2023-12-28T00:27:05;5.70;99.90
15819;DHT22;8010;53.986;12.106;2023-12-28T00:29:31;5.70;99.90
15819;DHT22;8010;53.986;12.106;2023-12-28T00:31:57;5.70;99.90
15819;DHT22;8010;53.986;12.106;2023-12-28T00:34:23;5.80;99.90
15819;DHT22;8010;53.986;12.106;2023-12-28T00:36:48;5.80;99.90
15819;DHT22;8010;53.986;12.106;2023-12-28T00:39:14;5.80;99.90
15819;DHT22;8010;53.986;12.106;2023-12-28T00:41:40;5.80;99.90
15819;DHT22;8010;53.986;12.106;2023-12-28T00:44:06;5.90;99.90
15819;DHT22;8010;53.986;12.106;2023-12-28T00:46:35;5.90;99.90
15819;DHT22;8010;53.986;12.106;2023-12-28T00:49:00;6.00;99.90
15819;DHT22;8010;53.986;12.106;2023-12-28T00:51:26;6.00;99.90
15819;DHT22;8010;53.986;12.106;2023-12-28T00:53:51;6.00;99.90
15819;DHT22;8010;53.986;12.106;2023-12-28T00:56:17;6.00;99.90
15819;DHT22;8010;53.986;12.106;2023-12-28T00:58:43;6.00;99.90
15819;DHT22;8010;53.986;12.106;2023-12-28T01:01:09;6.00;99.90
15819;DHT22;8010;53.986;12.106;2023-12-28T01:03:35;6.00;99.90
15819;DHT22;8010;53.986;12.106;2023-12-28T01:06:00;6.00;99.90
15819;DHT22;8010;53.986;12.106;2023-12-28T01:08:26;6.10;99.90
15819;DHT22;8010;53.986;12.106;2023-12-28T01:10:51;6.10;99.90
15819;DHT22;8010;53.986;12.106;2023-12-28T01:13:17;6.10;99.90
15819;DHT22;8010;53.986;12.106;2023-12-28T01:15:43;6.10;99.90
15819;DHT22;8010;53.986;12.106;2023-12-28T01:18:08;6.10;99.90
15819;DHT22;8010;53.986;12.106;2023-12-28T01:20:34;6.10;99.90
15819;DHT22;8010;53.986;12.106;2023-12-28T01:23:00;6.20;99.90
15819;DHT22;8010;53.986;12.106;2023-12-28T01:25:26;6.20;99.90
15819;DHT22;8010;53.986;12.106;2023-12-28T01:27:51;6.20;99.90
15819;DHT22;8010;53.986;12.106;2023-12-28T01:30:17;6.40;99.90
15819;DHT22;8010;53.986;12.106;2023-12-28T01:32:42;6.50;99.90
15819;DHT22;8010;53.986;12.106;2023-12-28T01:35:08;6.50;99.90
15819;DHT22;8010;53.986;12.106;2023-12-28T01:37:33;6.80;99.90
15819;DHT22;8010;53.986;12.106;2023-12-28T01:39:59;6.50;99.90
15819;DHT22;8010;53.986;12.106;2023-12-28T01:42:26;6.60;99.90
15819;DHT22;8010;53.986;12.106;2023-12-28T01:44:51;6.60;99.90
15819;DHT22;8010;53.986;12.106;2023-12-28T01:47:18;6.70;99.90
15819;DHT22;8010;53.986;12.106;2023-12-28T01:49:43;6.70;99.90
15819;DHT22;8010;53.986;12.106;2023-12-28T01:52:09;6.70;99.90
15819;DHT22;8010;53.986;12.106;2023-12-28T01:54:35;6.80;99.90
15819;DHT22;8010;53.986;12.106;2023-12-28T01:57:03;6.80;99.90
15819;DHT22;8010;53.986;12.106;2023-12-28T01:59:29;6.90;99.90
15819;DHT22;8010;53.986;12.106;2023-12-28T02:01:55;7.00;99.90
15819;DHT22;8010;53.986;12.106;2023-12-28T02:04:20;7.00;99.90
15819;DHT22;8010;53.986;12.106;2023-12-28T02:06:59;7.00;99.90
15819;DHT22;8010;53.986;12.106;2023-12-28T02:09:25;7.00;99.90
15819;DHT22;8010;53.986;12.106;2023-12-28T02:11:51;7.10;99.90
15819;DHT22;8010;53.986;12.106;2023-12-28T02:14:17;7.10;99.90
15819;DHT22;8010;53.986;12.106;2023-12-28T02:19:43;7.10;99.90
15819;DHT22;8010;53.986;12.106;2023-12-28T02:22:11;7.10;99.90
15819;DHT22;8010;53.986;12.106;2023-12-28T02:25:07;7.10;99.90
15819;DHT22;8010;53.986;12.106;2023-12-28T02:30:06;7.10;99.90
15819;DHT22;8010;53.986;12.106;2023-12-28T02:35:30;7.10;99.90
15819;DHT22;8010;53.986;12.106;2023-12-28T02:37:59;7.10;99.90
15819;DHT22;8010;53.986;12.106;2023-12-28T02:40:27;7.10;99.90
15819;DHT22;8010;53.986;12.106;2023-12-28T02:42:53;7.10;99.90
15819;DHT22;8010;53.986;12.106;2023-12-28T02:45:19;7.20;99.90
15819;DHT22;8010;53.986;12.106;2023-12-28T02:47:45;7.20;99.90
15819;DHT22;8010;53.986;12.106;2023-12-28T02:50:11;7.20;99.90
15819;DHT22;8010;53.986;12.106;2023-12-28T02:52:36;7.30;99.90
15819;DHT22;8010;53.986;12.106;2023-12-28T02:55:02;7.30;99.90
15819;DHT22;8010;53.986;12.106;2023-12-28T02:57:28;7.30;99.90
15819;DHT22;8010;53.986;12.106;2023-12-28T02:59:53;7.30;99.90
15819;DHT22;8010;53.986;12.106;2023-12-28T03:02:19;7.30;99.90
15819;DHT22;8010;53.986;12.106;2023-12-28T03:04:44;7.40;99.90
15819;DHT22;8010;53.986;12.106;2023-12-28T03:07:10;7.40;99.90
15819;DHT22;8010;53.986;12.106;2023-12-28T03:09:35;7.40;99.90
15819;DHT22;8010;53.986;12.106;2023-12-28T03:12:04;7.50;99.90
15819;DHT22;8010;53.986;12.106;2023-12-28T03:14:29;7.50;99.90
15819;DHT22;8010;53.986;12.106;2023-12-28T03:16:55;7.60;99.90
15819;DHT22;8010;53.986;12.106;2023-12-28T03:19:20;7.60;99.90
15819;DHT22;8010;53.986;12.106;2023-12-28T03:21:46;7.60;99.90
15819;DHT22;8010;53.986;12.106;2023-12-28T03:24:11;7.60;99.90
15819;DHT22;8010;53.986;12.106;2023-12-28T03:26:39;7.70;99.90
15819;DHT22;8010;53.986;12.106;2023-12-28T03:29:06;7.70;99.90
15819;DHT22;8010;53.986;12.106;2023-12-28T03:31:32;7.70;99.90
15819;DHT22;8010;53.986;12.106;2023-12-28T03:33:59;7.70;99.90
15819;DHT22;8010;53.986;12.106;2023-12-28T03:36:24;7.70;99.90
15819;DHT22;8010;53.986;12.106;2023-12-28T03:38:50;7.70;99.90
15819;DHT22;8010;53.986;12.106;2023-12-28T03:41:19;7.70;99.90
15819;DHT22;8010;53.986;12.106;2023-12-28T03:43:47;7.70;99.90
15819;DHT22;8010;53.986;12.106;2023-12-28T03:46:13;7.70;99.90
15819;DHT22;8010;53.986;12.106;2023-12-28T03:48:39;7.70;99.90
15819;DHT22;8010;53.986;12.106;2023-12-28T03:51:05;7.70;99.90
15819;DHT22;8010;53.986;12.106;2023-12-28T03:53:31;7.70;99.90
15819;DHT22;8010;53.986;12.106;2023-12-28T03:56:00;7.70;99.90
15819;DHT22;8010;53.986;12.106;2023-12-28T03:58:25;7.80;99.90
15819;DHT22;8010;53.986;12.106;2023-12-28T04:00:54;7.80;99.90
15819;DHT22;8010;53.986;12.106;2023-12-28T04:03:20;7.80;99.90
15819;DHT22;8010;53.986;12.106;2023-12-28T04:05:46;7.80;99.90
15819;DHT22;8010;53.986;12.106;2023-12-28T04:08:12;7.80;99.90
15819;DHT22;8010;53.986;12.106;2023-12-28T04:10:37;7.80;99.90
15819;DHT22;8010;53.986;12.106;2023-12-28T04:13:03;7.90;99.90
15819;DHT22;8010;53.986;12.106;2023-12-28T04:15:30;7.90;99.90
15819;DHT22;8010;53.986;12.106;2023-12-28T04:17:55;7.80;99.90
15819;DHT22;8010;53.986;12.106;2023-12-28T04:20:21;7.80;99.90
15819;DHT22;8010;53.986;12.106;2023-12-28T04:22:46;7.80;99.90
15819;DHT22;8010;53.986;12.106;2023-12-28T04:25:12;7.80;99.90
15819;DHT22;8010;53.986;12.106;2023-12-28T04:27:38;7.80;99.90
15819;DHT22;8010;53.986;12.106;2023-12-28T04:30:05;7.80;99.90
15819;DHT22;8010;53.986;12.106;2023-12-28T04:32:32;7.80;99.90
15819;DHT22;8010;53.986;12.106;2023-12-28T04:34:57;7.80;99.90
15819;DHT22;8010;53.986;12.106;2023-12-28T04:37:23;7.80;99.90
15819;DHT22;8010;53.986;12.106;2023-12-28T04:39:49;7.80;99.90
15819;DHT22;8010;53.986;12.106;2023-12-28T04:42:14;7.80;99.90
15819;DHT22;8010;53.986;12.106;2023-12-28T04:44:40;7.80;99.90
15819;DHT22;8010;53.986;12.106;2023-12-28T04:47:06;7.80;99.90
15819;DHT22;8010;53.986;12.106;2023-12-28T04:49:31;7.80;99.90
15819;DHT22;8010;53.986;12.106;2023-12-28T04:51:57;7.80;99.90
15819;DHT22;8010;53.986;12.106;2023-12-28T04:54:23;7.80;99.90
15819;DHT22;8010;53.986;12.106;2023-12-28T04:56:48;7.70;99.90
15819;DHT22;8010;53.986;12.106;2023-12-28T04:59:14;7.70;99.90
15819;DHT22;8010;53.986;12.106;2023-12-28T05:01:43;7.70;99.90
15819;DHT22;8010;53.986;12.106;2023-12-28T05:04:09;7.70;99.90
15819;DHT22;8010;53.986;12.106;2023-12-28T05:06:35;7.70;99.90
15819;DHT22;8010;53.986;12.106;2023-12-28T05:09:01;7.70;99.90
15819;DHT22;8010;53.986;12.106;2023-12-28T05:11:26;7.70;99.90
15819;DHT22;8010;53.986;12.106;2023-12-28T05:13:53;7.70;99.90
15819;DHT22;8010;53.986;12.106;2023-12-28T05:16:19;7.70;99.90
15819;DHT22;8010;53.986;12.106;2023-12-28T05:18:45;7.70;99.90
15819;DHT22;8010;53.986;12.106;2023-12-28T05:21:12;7.70;99.90
15819;DHT22;8010;53.986;12.106;2023-12-28T05:23:37;7.70;99.90
15819;DHT22;8010;53.986;12.106;2023-12-28T05:26:03;7.70;99.90
15819;DHT22;8010;53.986;12.106;2023-12-28T05:28:29;7.70;99.90
15819;DHT22;8010;53.986;12.106;2023-12-28T05:30:55;7.70;99.90
15819;DHT22;8010;53.986;12.106;2023-12-28T05:33:21;7.70;99.90
15819;DHT22;8010;53.986;12.106;2023-12-28T05:35:46;7.70;99.90
15819;DHT22;8010;53.986;12.106;2023-12-28T05:38:12;7.70;99.90
15819;DHT22;8010;53.986;12.106;2023-12-28T05:40:37;7.80;99.90
15819;DHT22;8010;53.986;12.106;2023-12-28T05:43:03;7.80;99.90
15819;DHT22;8010;53.986;12.106;2023-12-28T05:45:28;7.80;99.90
15819;DHT22;8010;53.986;12.106;2023-12-28T05:47:54;7.80;99.90
15819;DHT22;8010;53.986;12.106;2023-12-28T05:50:19;7.80;99.90
15819;DHT22;8010;53.986;12.106;2023-12-28T05:52:45;7.80;99.90
15819;DHT22;8010;53.986;12.106;2023-12-28T05:55:11;7.80;99.90
15819;DHT22;8010;53.986;12.106;2023-12-28T05:57:37;7.80;99.90
15819;DHT22;8010;53.986;12.106;2023-12-28T06:00:02;7.80;99.90
15819;DHT22;8010;53.986;12.106;2023-12-28T06:02:29;7.80;99.90
15819;DHT22;8010;53.986;12.106;2023-12-28T06:04:55;7.80;99.90
15819;DHT22;8010;53.986;12.106;2023-12-28T06:07:20;7.80;99.90
15819;DHT22;8010;53.986;12.106;2023-12-28T06:09:46;7.80;99.90
15819;DHT22;8010;53.986;12.106;2023-12-28T06:12:12;7.80;99.90
15819;DHT22;8010;53.986;12.106;2023-12-28T06:14:37;7.80;99.90
15819;DHT22;8010;53.986;12.106;2023-12-28T06:17:03;7.80;99.90
15819;DHT22;8010;53.986;12.106;2023-12-28T06:19:29;7.70;99.90
15819;DHT22;8010;53.986;12.106;2023-12-28T06:21:54;7.70;99.90
15819;DHT22;8010;53.986;12.106;2023-12-28T06:24:20;7.80;99.90
15819;DHT22;8010;53.986;12.106;2023-12-28T06:26:45;7.80;99.90
15819;DHT22;8010;53.986;12.106;2023-12-28T06:29:11;7.90;99.90
15819;DHT22;8010;53.986;12.106;2023-12-28T06:31:37;7.80;99.90
15819;DHT22;8010;53.986;12.106;2023-12-28T06:34:03;7.80;99.90
15819;DHT22;8010;53.986;12.106;2023-12-28T06:36:29;7.80;99.90
15819;DHT22;8010;53.986;12.106;2023-12-28T06:38:56;7.90;99.90
15819;DHT22;8010;53.986;12.106;2023-12-28T06:41:21;7.90;99.90
15819;DHT22;8010;53.986;12.106;2023-12-28T06:43:47;7.90;99.90
15819;DHT22;8010;53.986;12.106;2023-12-28T06:46:13;7.90;99.90
15819;DHT22;8010;53.986;12.106;2023-12-28T06:48:38;7.90;99.90
15819;DHT22;8010;53.986;12.106;2023-12-28T06:51:09;7.80;99.90
15819;DHT22;8010;53.986;12.106;2023-12-28T06:53:35;7.80;99.90
15819;DHT22;8010;53.986;12.106;2023-12-28T06:56:00;7.80;99.90
15819;DHT22;8010;53.986;12.106;2023-12-28T06:58:26;7.80;99.90
15819;DHT22;8010;53.986;12.106;2023-12-28T07:00:51;7.70;99.90
15819;DHT22;8010;53.986;12.106;2023-12-28T07:03:17;7.80;99.90
15819;DHT22;8010;53.986;12.106;2023-12-28T07:05:42;7.70;99.90
15819;DHT22;8010;53.986;12.106;2023-12-28T07:08:08;7.70;99.90
15819;DHT22;8010;53.986;12.106;2023-12-28T07:10:34;7.60;99.90
15819;DHT22;8010;53.986;12.106;2023-12-28T07:12:59;7.60;99.90
15819;DHT22;8010;53.986;12.106;2023-12-28T07:15:25;7.60;99.90
15819;DHT22;8010;53.986;12.106;2023-12-28T07:17:50;7.60;99.90
15819;DHT22;8010;53.986;12.106;2023-12-28T07:20:16;7.60;99.90
15819;DHT22;8010;53.986;12.106;2023-12-28T07:22:42;7.60;99.90
15819;DHT22;8010;53.986;12.106;2023-12-28T07:25:08;7.60;99.90
15819;DHT22;8010;53.986;12.106;2023-12-28T07:27:36;7.60;99.90
15819;DHT22;8010;53.986;12.106;2023-12-28T07:30:02;7.60;99.90
15819;DHT22;8010;53.986;12.106;2023-12-28T07:32:31;7.60;99.90
15819;DHT22;8010;53.986;12.106;2023-12-28T07:34:56;7.70;99.90
15819;DHT22;8010;53.986;12.106;2023-12-28T07:37:22;7.70;99.90
15819;DHT22;8010;53.986;12.106;2023-12-28T07:39:48;7.70;99.90
15819;DHT22;8010;53.986;12.106;2023-12-28T07:42:13;7.70;99.90
15819;DHT22;8010;53.986;12.106;2023-12-28T07:44:39;7.70;99.90
15819;DHT22;8010;53.986;12.106;2023-12-28T07:47:05;7.70;99.90
15819;DHT22;8010;53.986;12.106;2023-12-28T07:49:31;7.80;99.90
15819;DHT22;8010;53.986;12.106;2023-12-28T07:51:57;7.70;99.90
15819;DHT22;8010;53.986;12.106;2023-12-28T07:54:23;7.70;99.90
15819;DHT22;8010;53.986;12.106;2023-12-28T07:56:48;7.70;99.90
15819;DHT22;8010;53.986;12.106;2023-12-28T07:59:14;7.80;99.90
15819;DHT22;8010;53.986;12.106;2023-12-28T08:01:39;7.80;99.90
15819;DHT22;8010;53.986;12.106;2023-12-28T08:04:05;7.80;99.90
15819;DHT22;8010;53.986;12.106;2023-12-28T08:06:30;7.80;99.90
15819;DHT22;8010;53.986;12.106;2023-12-28T08:09:00;7.80;99.90
15819;DHT22;8010;53.986;12.106;2023-12-28T08:11:29;7.80;99.90
15819;DHT22;8010;53.986;12.106;2023-12-28T08:13:54;7.80;99.90
15819;DHT22;8010;53.986;12.106;2023-12-28T08:16:20;7.80;99.90
15819;DHT22;8010;53.986;12.106;2023-12-28T08:18:46;7.80;99.90
15819;DHT22;8010;53.986;12.106;2023-12-28T08:21:11;7.80;99.90
15819;DHT22;8010;53.986;12.106;2023-12-28T08:23:37;7.80;99.90
15819;DHT22;8010;53.986;12.106;2023-12-28T08:26:02;7.80;99.90
15819;DHT22;8010;53.986;12.106;2023-12-28T08:28:28;7.90;99.90
15819;DHT22;8010;53.986;12.106;2023-12-28T08:30:56;7.90;99.90
15819;DHT22;8010;53.986;12.106;2023-12-28T08:33:22;7.90;99.90
15819;DHT22;8010;53.986;12.106;2023-12-28T08:35:47;8.00;99.90
15819;DHT22;8010;53.986;12.106;2023-12-28T08:38:13;8.00;99.90
15819;DHT22;8010;53.986;12.106;2023-12-28T08:40:38;8.10;99.90
15819;DHT22;8010;53.986;12.106;2023-12-28T08:43:04;8.10;99.90
15819;DHT22;8010;53.986;12.106;2023-12-28T08:45:29;8.10;99.90
15819;DHT22;8010;53.986;12.106;2023-12-28T08:47:55;8.10;99.90
15819;DHT22;8010;53.986;12.106;2023-12-28T08:50:21;8.20;99.90
15819;DHT22;8010;53.986;12.106;2023-12-28T08:52:47;8.30;99.90
15819;DHT22;8010;53.986;12.106;2023-12-28T08:55:12;8.30;99.90
15819;DHT22;8010;53.986;12.106;2023-12-28T08:57:38;8.30;99.90
15819;DHT22;8010;53.986;12.106;2023-12-28T09:00:06;8.50;99.90
15819;DHT22;8010;53.986;12.106;2023-12-28T09:02:32;8.50;99.90
15819;DHT22;8010;53.986;12.106;2023-12-28T09:04:58;8.60;99.90
15819;DHT22;8010;53.986;12.106;2023-12-28T09:07:24;8.60;99.90
15819;DHT22;8010;53.986;12.106;2023-12-28T09:09:49;8.60;99.90
15819;DHT22;8010;53.986;12.106;2023-12-28T09:12:15;8.70;99.90
15819;DHT22;8010;53.986;12.106;2023-12-28T09:14:41;8.70;99.90
15819;DHT22;8010;53.986;12.106;2023-12-28T09:17:06;8.70;99.90
15819;DHT22;8010;53.986;12.106;2023-12-28T09:19:32;8.80;99.90
15819;DHT22;8010;53.986;12.106;2023-12-28T09:21:57;8.90;99.90
15819;DHT22;8010;53.986;12.106;2023-12-28T09:24:23;9.00;99.90
15819;DHT22;8010;53.986;12.106;2023-12-28T09:26:48;9.10;99.90
15819;DHT22;8010;53.986;12.106;2023-12-28T09:29:14;9.20;99.90
15819;DHT22;8010;53.986;12.106;2023-12-28T09:31:40;9.20;99.90
15819;DHT22;8010;53.986;12.106;2023-12-28T09:34:05;9.30;99.90
15819;DHT22;8010;53.986;12.106;2023-12-28T09:36:31;9.30;99.90
15819;DHT22;8010;53.986;12.106;2023-12-28T09:38:56;9.40;99.90
15819;DHT22;8010;53.986;12.106;2023-12-28T09:41:26;9.50;99.90
15819;DHT22;8010;53.986;12.106;2023-12-28T09:44:07;9.50;99.90
15819;DHT22;8010;53.986;12.106;2023-12-28T09:46:33;9.60;99.90
15819;DHT22;8010;53.986;12.106;2023-12-28T09:48:59;9.50;99.90
15819;DHT22;8010;53.986;12.106;2023-12-28T09:51:25;9.50;99.90
15819;DHT22;8010;53.986;12.106;2023-12-28T09:53:51;9.50;99.90
15819;DHT22;8010;53.986;12.106;2023-12-28T09:56:16;9.50;99.90
15819;DHT22;8010;53.986;12.106;2023-12-28T09:58:43;9.50;99.90
15819;DHT22;8010;53.986;12.106;2023-12-28T10:01:09;9.40;99.90
15819;DHT22;8010;53.986;12.106;2023-12-28T10:03:35;9.50;99.90
15819;DHT22;8010;53.986;12.106;2023-12-28T10:06:01;9.50;99.90
15819;DHT22;8010;53.986;12.106;2023-12-28T10:08:26;9.50;99.90
15819;DHT22;8010;53.986;12.106;2023-12-28T10:10:52;9.60;99.90
15819;DHT22;8010;53.986;12.106;2023-12-28T10:13:20;9.60;99.90
15819;DHT22;8010;53.986;12.106;2023-12-28T10:15:46;9.60;99.90
15819;DHT22;8010;53.986;12.106;2023-12-28T10:18:12;9.60;99.90
15819;DHT22;8010;53.986;12.106;2023-12-28T10:20:38;9.60;99.90
15819;DHT22;8010;53.986;12.106;2023-12-28T10:23:04;9.70;99.90
15819;DHT22;8010;53.986;12.106;2023-12-28T10:25:31;9.70;99.90
15819;DHT22;8010;53.986;12.106;2023-12-28T10:27:57;9.70;99.90
15819;DHT22;8010;53.986;12.106;2023-12-28T10:30:22;9.80;99.90
15819;DHT22;8010;53.986;12.106;2023-12-28T10:32:49;9.80;99.90
15819;DHT22;8010;53.986;12.106;2023-12-28T10:35:14;9.80;99.90
15819;DHT22;8010;53.986;12.106;2023-12-28T10:37:41;9.80;99.90
15819;DHT22;8010;53.986;12.106;2023-12-28T10:40:14;9.90;99.90
15819;DHT22;8010;53.986;12.106;2023-12-28T10:45:10;10.00;99.90
15819;DHT22;8010;53.986;12.106;2023-12-28T10:47:43;10.10;99.90
15819;DHT22;8010;53.986;12.106;2023-12-28T10:50:13;10.20;99.90
15819;DHT22;8010;53.986;12.106;2023-12-28T10:52:39;10.20;99.90
15819;DHT22;8010;53.986;12.106;2023-12-28T10:55:27;10.30;99.90
15819;DHT22;8010;53.986;12.106;2023-12-28T10:58:11;10.40;99.90
15819;DHT22;8010;53.986;12.106;2023-12-28T11:00:47;10.50;99.90
15819;DHT22;8010;53.986;12.106;2023-12-28T11:03:18;10.50;99.90
15819;DHT22;8010;53.986;12.106;2023-12-28T11:05:47;10.60;99.90
15819;DHT22;8010;53.986;12.106;2023-12-28T11:08:15;10.60;99.90
15819;DHT22;8010;53.986;12.106;2023-12-28T11:10:41;10.80;99.90
15819;DHT22;8010;53.986;12.106;2023-12-28T11:13:08;10.80;99.90
15819;DHT22;8010;53.986;12.106;2023-12-28T11:15:35;10.90;99.90
15819;DHT22;8010;53.986;12.106;2023-12-28T11:18:01;10.90;99.90
15819;DHT22;8010;53.986;12.106;2023-12-28T11:20:27;10.90;99.90
15819;DHT22;8010;53.986;12.106;2023-12-28T11:22:55;10.90;99.90
15819;DHT22;8010;53.986;12.106;2023-12-28T11:25:22;10.90;99.90
15819;DHT22;8010;53.986;12.106;2023-12-28T11:27:47;11.10;99.90
15819;DHT22;8010;53.986;12.106;2023-12-28T11:30:13;11.10;99.90
15819;DHT22;8010;53.986;12.106;2023-12-28T11:32:43;11.20;99.90
15819;DHT22;8010;53.986;12.106;2023-12-28T11:35:11;11.30;99.90
15819;DHT22;8010;53.986;12.106;2023-12-28T11:37:38;11.50;99.90
15819;DHT22;8010;53.986;12.106;2023-12-28T11:40:32;11.70;99.90
15819;DHT22;8010;53.986;12.106;2023-12-28T11:43:18;11.70;99.90
15819;DHT22;8010;53.986;12.106;2023-12-28T11:45:51;11.60;99.90
15819;DHT22;8010;53.986;12.106;2023-12-28T11:48:27;11.50;99.90
15819;DHT22;8010;53.986;12.106;2023-12-28T11:50:56;11.40;99.90
15819;DHT22;8010;53.986;12.106;2023-12-28T11:53:22;11.30;99.90
15819;DHT22;8010;53.986;12.106;2023-12-28T11:55:49;11.20;99.90
15819;DHT22;8010;53.986;12.106;2023-12-28T11:58:19;11.20;99.90
15819;DHT22;8010;53.986;12.106;2023-12-28T12:00:44;11.40;99.90
15819;DHT22;8010;53.986;12.106;2023-12-28T12:03:11;11.50;99.90
15819;DHT22;8010;53.986;12.106;2023-12-28T12:05:37;11.70;99.90
15819;DHT22;8010;53.986;12.106;2023-12-28T12:08:03;11.80;99.90
15819;DHT22;8010;53.986;12.106;2023-12-28T12:10:28;11.70;99.90
15819;DHT22;8010;53.986;12.106;2023-12-28T12:12:54;11.60;99.90
15819;DHT22;8010;53.986;12.106;2023-12-28T12:15:20;11.50;99.90
15819;DHT22;8010;53.986;12.106;2023-12-28T12:17:45;11.50;99.90
15819;DHT22;8010;53.986;12.106;2023-12-28T12:20:11;11.60;99.90
15819;DHT22;8010;53.986;12.106;2023-12-28T12:22:37;11.60;99.90
15819;DHT22;8010;53.986;12.106;2023-12-28T12:25:03;11.50;99.90
15819;DHT22;8010;53.986;12.106;2023-12-28T12:27:30;11.40;99.90
15819;DHT22;8010;53.986;12.106;2023-12-28T12:29:56;11.40;99.90
15819;DHT22;8010;53.986;12.106;2023-12-28T12:32:22;11.20;99.90
15819;DHT22;8010;53.986;12.106;2023-12-28T12:34:47;11.20;99.90
15819;DHT22;8010;53.986;12.106;2023-12-28T12:37:13;11.10;99.90
15819;DHT22;8010;53.986;12.106;2023-12-28T12:39:39;11.10;99.90
15819;DHT22;8010;53.986;12.106;2023-12-28T12:42:05;11.00;99.90
15819;DHT22;8010;53.986;12.106;2023-12-28T12:44:30;11.00;99.90
15819;DHT22;8010;53.986;12.106;2023-12-28T12:46:57;11.00;99.90
15819;DHT22;8010;53.986;12.106;2023-12-28T12:49:23;11.00;99.90
15819;DHT22;8010;53.986;12.106;2023-12-28T12:51:49;11.00;99.90
15819;DHT22;8010;53.986;12.106;2023-12-28T12:54:17;11.00;99.90
15819;DHT22;8010;53.986;12.106;2023-12-28T12:56:44;11.00;99.90
15819;DHT22;8010;53.986;12.106;2023-12-28T12:59:11;11.00;99.90
15819;DHT22;8010;53.986;12.106;2023-12-28T13:01:41;11.00;99.90
15819;DHT22;8010;53.986;12.106;2023-12-28T13:04:07;10.90;99.90
15819;DHT22;8010;53.986;12.106;2023-12-28T13:06:32;11.00;99.90
15819;DHT22;8010;53.986;12.106;2023-12-28T13:08:58;11.10;99.90
15819;DHT22;8010;53.986;12.106;2023-12-28T13:11:23;11.00;99.90
15819;DHT22;8010;53.986;12.106;2023-12-28T13:13:52;11.00;99.90
15819;DHT22;8010;53.986;12.106;2023-12-28T13:16:17;11.00;99.90
15819;DHT22;8010;53.986;12.106;2023-12-28T13:18:43;11.00;99.90
15819;DHT22;8010;53.986;12.106;2023-12-28T13:21:08;10.90;99.90
15819;DHT22;8010;53.986;12.106;2023-12-28T13:23:34;11.00;99.90
15819;DHT22;8010;53.986;12.106;2023-12-28T13:26:00;10.90;99.90
15819;DHT22;8010;53.986;12.106;2023-12-28T13:28:25;10.90;99.90
15819;DHT22;8010;53.986;12.106;2023-12-28T13:30:51;10.90;99.90
15819;DHT22;8010;53.986;12.106;2023-12-28T13:33:21;10.90;99.90
15819;DHT22;8010;53.986;12.106;2023-12-28T13:35:46;10.90;99.90
15819;DHT22;8010;53.986;12.106;2023-12-28T13:38:12;10.90;99.90
15819;DHT22;8010;53.986;12.106;2023-12-28T13:40:37;10.90;99.90
15819;DHT22;8010;53.986;12.106;2023-12-28T13:43:03;10.90;99.90
15819;DHT22;8010;53.986;12.106;2023-12-28T13:45:28;10.90;99.90
15819;DHT22;8010;53.986;12.106;2023-12-28T13:47:54;10.90;99.90
15819;DHT22;8010;53.986;12.106;2023-12-28T13:50:20;10.90;99.90
15819;DHT22;8010;53.986;12.106;2023-12-28T13:52:46;10.90;99.90
15819;DHT22;8010;53.986;12.106;2023-12-28T13:55:11;10.90;99.90
15819;DHT22;8010;53.986;12.106;2023-12-28T13:57:37;10.80;99.90
15819;DHT22;8010;53.986;12.106;2023-12-28T14:00:03;10.80;99.90
15819;DHT22;8010;53.986;12.106;2023-12-28T14:02:30;10.80;99.90
15819;DHT22;8010;53.986;12.106;2023-12-28T14:04:56;10.80;99.90
15819;DHT22;8010;53.986;12.106;2023-12-28T14:07:24;10.80;99.90
15819;DHT22;8010;53.986;12.106;2023-12-28T14:09:50;10.70;99.90
15819;DHT22;8010;53.986;12.106;2023-12-28T14:12:16;10.70;99.90
15819;DHT22;8010;53.986;12.106;2023-12-28T14:14:42;10.70;99.90
15819;DHT22;8010;53.986;12.106;2023-12-28T14:17:07;10.80;99.90
15819;DHT22;8010;53.986;12.106;2023-12-28T14:19:33;10.70;99.90
15819;DHT22;8010;53.986;12.106;2023-12-28T14:21:59;10.70;99.90
15819;DHT22;8010;53.986;12.106;2023-12-28T14:24:25;10.70;99.90
15819;DHT22;8010;53.986;12.106;2023-12-28T14:26:53;10.70;99.90
15819;DHT22;8010;53.986;12.106;2023-12-28T14:29:20;10.70;99.90
15819;DHT22;8010;53.986;12.106;2023-12-28T14:31:46;10.60;99.90
15819;DHT22;8010;53.986;12.106;2023-12-28T14:34:12;11.40;99.90
15819;DHT22;8010;53.986;12.106;2023-12-28T14:36:38;10.50;99.90
15819;DHT22;8010;53.986;12.106;2023-12-28T14:39:06;10.50;99.90
15819;DHT22;8010;53.986;12.106;2023-12-28T14:41:35;10.50;99.90
15819;DHT22;8010;53.986;12.106;2023-12-28T14:44:01;10.50;99.90
15819;DHT22;8010;53.986;12.106;2023-12-28T14:46:27;10.50;99.90
15819;DHT22;8010;53.986;12.106;2023-12-28T14:48:53;10.40;99.90
15819;DHT22;8010;53.986;12.106;2023-12-28T14:51:19;10.50;99.90
15819;DHT22;8010;53.986;12.106;2023-12-28T14:53:45;10.50;99.90
15819;DHT22;8010;53.986;12.106;2023-12-28T14:56:10;10.50;99.90
15819;DHT22;8010;53.986;12.106;2023-12-28T14:58:37;10.50;99.90
15819;DHT22;8010;53.986;12.106;2023-12-28T15:01:03;10.50;99.90
15819;DHT22;8010;53.986;12.106;2023-12-28T15:03:28;10.50;99.90
15819;DHT22;8010;53.986;12.106;2023-12-28T15:05:54;10.90;99.90
15819;DHT22;8010;53.986;12.106;2023-12-28T15:08:23;10.50;99.90
15819;DHT22;8010;53.986;12.106;2023-12-28T15:10:49;10.50;99.90
15819;DHT22;8010;53.986;12.106;2023-12-28T15:13:14;10.40;99.90
15819;DHT22;8010;53.986;12.106;2023-12-28T15:15:42;10.40;99.90
15819;DHT22;8010;53.986;12.106;2023-12-28T15:18:09;10.40;99.90
15819;DHT22;8010;53.986;12.106;2023-12-28T15:20:35;10.40;99.90
15819;DHT22;8010;53.986;12.106;2023-12-28T15:23:01;10.40;99.90
15819;DHT22;8010;53.986;12.106;2023-12-28T15:25:26;10.40;99.90
15819;DHT22;8010;53.986;12.106;2023-12-28T15:27:52;10.40;99.90
15819;DHT22;8010;53.986;12.106;2023-12-28T15:30:17;10.30;99.90
15819;DHT22;8010;53.986;12.106;2023-12-28T15:32:43;10.30;99.90
15819;DHT22;8010;53.986;12.106;2023-12-28T15:35:13;10.20;99.90
15819;DHT22;8010;53.986;12.106;2023-12-28T15:37:39;10.20;99.90
15819;DHT22;8010;53.986;12.106;2023-12-28T15:40:05;10.20;99.90
15819;DHT22;8010;53.986;12.106;2023-12-28T15:42:31;10.20;99.90
15819;DHT22;8010;53.986;12.106;2023-12-28T15:44:57;10.30;99.90